KIML

Imperial Municipal Airport

Imperial, Nebraska, USA
METAR KIML 180853Z AUTO 28008KT 10SM CLR M04/M07 A2997 RMK AO2 SLP175 T10441067 51002
Observed Flight Rules
Dec-18 @ 08:53 UTC (7 minutes ago) Visual Flight Rules
Wind Visibility Clouds
280° at 8 knots 10 miles
  • Clear skies
Temperatures Readings
Current -4°C / 25°F
Dewpoint -7°C / 19°F
Humidity 80%
Altimeter 29.97" Hg
Pressure 1017.5 hPa
Elevation 998
METAR KIML 180853Z AUTO 28008KT 10SM CLR M04/M07 A2997 RMK AO2 SLP175 T10441067 51002
Observed Flight Rules
Dec-18 @ 08:53 UTC
(7 minutes ago)
VFR
Wind Visibility
280° at 8 knots 10 miles
Clouds
  • Clear skies
Temperature Dewpoint
-4°C / 25°F -7°C / 19°F
Humidity Altimeter Pressure
80% 29.97" Hg 1017.5 hPa